Time;durP1;ratioP1;P1;durP2;ratioP2;P2;SDS_P1;SDS_P2;PMS_P1;PMS_P2;Temp;Humidity;BMP_temperature;BMP_pressure;BME280_temperature;BME280_humidity;BME280_pressure;Samples;Min_cycle;Max_cycle;Signal;HPM_P1;HPM_P2
2024/03/07 00:01:17;;;;;;;;;;;;;;;20.47;33.46;101835.28;4265063;27;19919;-59
2024/03/07 00:03:19;;;;;;;;;;;;;;;20.46;33.24;101830.88;4246237;28;19919;-58
2024/03/07 00:05:24;;;;;;;;;;;;;;;20.46;33.24;101837.09;4264497;27;19946;-59
2024/03/07 00:07:26;;;;;;;;;;;;;;;20.48;33.24;101842.38;4264781;27;19930;-59
2024/03/07 00:09:27;;;;;;;;;;;;;;;20.49;33.27;101833.41;4265093;27;19925;-59
2024/03/07 00:11:30;;;;;;;;;;;;;;;20.47;33.29;101838.81;4264852;27;19954;-59
2024/03/07 00:13:31;;;;;;;;;;;;;;;20.44;33.35;101839.00;4264876;27;19926;-59
2024/03/07 00:15:33;;;;;;;;;;;;;;;20.42;33.08;101839.06;4264729;27;20021;-58
2024/03/07 00:17:35;;;;;;;;;;;;;;;20.40;33.41;101833.00;4264835;27;19919;-59
2024/03/07 00:19:36;;;;;;;;;;;;;;;20.41;33.23;101833.84;4264434;27;19923;-58
2024/03/07 00:21:38;;;;;;;;;;;;;;;20.41;33.17;101825.81;4264666;27;19947;-59
2024/03/07 00:23:39;;;;;;;;;;;;;;;20.39;33.50;101828.59;4264765;27;19958;-59
2024/03/07 00:25:41;;;;;;;;;;;;;;;20.40;33.37;101826.75;4264705;27;19958;-59
2024/03/07 00:27:45;;;;;;;;;;;;;;;20.41;33.17;101831.16;4264607;27;19923;-59
2024/03/07 00:29:52;;;;;;;;;;;;;;;20.41;33.27;101831.16;4264631;27;19954;-59
2024/03/07 00:31:54;;;;;;;;;;;;;;;20.40;33.14;101829.44;4264628;27;20391;-59
2024/03/07 00:33:56;;;;;;;;;;;;;;;20.40;33.33;101832.09;4264446;27;20393;-59
2024/03/07 00:36:13;;;;;;;;;;;;;;;20.40;33.22;101832.09;4264430;27;19926;-59
2024/03/07 00:38:15;;;;;;;;;;;;;;;20.39;33.31;101825.91;4264675;27;19919;-59
2024/03/07 00:40:16;;;;;;;;;;;;;;;20.39;33.07;101833.06;4264493;27;19954;-59
2024/03/07 00:42:18;;;;;;;;;;;;;;;20.37;33.23;101824.28;4264553;27;19919;-59
2024/03/07 00:44:19;;;;;;;;;;;;;;;20.37;33.42;101830.47;4264598;27;20388;-59
2024/03/07 00:46:21;;;;;;;;;;;;;;;20.38;33.15;101824.19;4264323;27;20018;-59
2024/03/07 00:48:24;;;;;;;;;;;;;;;20.39;33.15;101830.38;4264216;27;20429;-58
2024/03/07 00:50:27;;;;;;;;;;;;;;;20.37;33.36;101829.63;4264690;27;20440;-59
2024/03/07 00:52:29;;;;;;;;;;;;;;;20.35;33.26;101820.84;4264496;27;19926;-59
2024/03/07 00:54:30;;;;;;;;;;;;;;;20.34;33.23;101825.34;4264494;27;20386;-60
2024/03/07 00:56:32;;;;;;;;;;;;;;;20.34;33.28;101819.13;4264135;27;19919;-60
2024/03/07 00:58:34;;;;;;;;;;;;;;;20.35;33.28;101816.38;4247190;27;19926;-59
2024/03/07 01:00:36;;;;;;;;;;;;;;;20.33;33.31;101818.28;4267619;27;20029;-59
2024/03/07 01:02:38;;;;;;;;;;;;;;;20.31;33.43;101816.66;4266929;27;20009;-59
2024/03/07 01:04:40;;;;;;;;;;;;;;;20.32;33.43;101813.03;4267621;27;19951;-59
2024/03/07 01:06:41;;;;;;;;;;;;;;;20.33;33.29;101817.38;4267156;27;19918;-59
2024/03/07 01:08:43;;;;;;;;;;;;;;;20.35;33.16;101821.72;4267423;27;19954;-59
2024/03/07 01:10:44;;;;;;;;;;;;;;;20.34;33.35;101814.66;4267123;27;20010;-59
2024/03/07 01:12:46;;;;;;;;;;;;;;;20.35;33.33;101812.81;4267557;27;19923;-59
2024/03/07 01:14:48;;;;;;;;;;;;;;;20.33;33.37;101814.72;4267271;27;20017;-59
2024/03/07 01:16:49;;;;;;;;;;;;;;;20.36;33.29;101811.88;4266934;27;20005;-59
2024/03/07 01:18:51;;;;;;;;;;;;;;;20.34;33.41;101803.97;4267039;27;19971;-59
2024/03/07 01:20:52;;;;;;;;;;;;;;;20.33;33.29;101810.25;4267341;27;19926;-59
2024/03/07 01:22:56;;;;;;;;;;;;;;;20.34;33.30;101803.09;4267241;27;19919;-59
2024/03/07 01:24:58;;;;;;;;;;;;;;;20.33;33.29;101806.72;4267154;27;19926;-59
2024/03/07 01:27:00;;;;;;;;;;;;;;;20.31;33.34;101798.78;4267141;27;19919;-59
2024/03/07 01:29:02;;;;;;;;;;;;;;;20.31;33.12;101795.28;4267204;27;19925;-59
2024/03/07 01:31:04;;;;;;;;;;;;;;;20.32;33.24;101797.84;4267199;27;20403;-59
2024/03/07 01:33:05;;;;;;;;;;;;;;;20.32;33.28;101797.84;4266419;27;19973;-59
2024/03/07 01:35:08;;;;;;;;;;;;;;;20.33;33.21;101796.03;4267343;27;19923;-59
2024/03/07 01:37:10;;;;;;;;;;;;;;;20.32;33.33;101787.16;4267141;27;20407;-59
2024/03/07 01:39:12;;;;;;;;;;;;;;;20.29;33.38;101775.78;4266784;27;19925;-59
2024/03/07 01:41:14;;;;;;;;;;;;;;;20.32;33.38;101781.81;4266850;27;19918;-59
2024/03/07 01:43:16;;;;;;;;;;;;;;;20.33;33.34;101788.00;4266652;27;20001;-59
2024/03/07 01:45:18;;;;;;;;;;;;;;;20.35;33.17;101776.31;4266765;27;20018;-59
2024/03/07 01:47:20;;;;;;;;;;;;;;;20.33;33.24;101770.19;4266450;27;19919;-59
2024/03/07 01:49:22;;;;;;;;;;;;;;;20.29;33.31;101771.28;4266763;27;19919;-59
2024/03/07 01:51:23;;;;;;;;;;;;;;;20.29;33.49;101765.09;4266463;27;19919;-59
2024/03/07 01:53:26;;;;;;;;;;;;;;;20.27;33.20;101758.03;4266806;27;20383;-59
2024/03/07 01:55:27;;;;;;;;;;;;;;;20.29;33.37;101763.28;4266734;27;20405;-59
2024/03/07 01:57:29;;;;;;;;;;;;;;;20.29;33.39;101754.41;4266643;27;19919;-59
2024/03/07 01:59:32;;;;;;;;;;;;;;;20.29;33.38;101751.75;4266564;27;19926;-59
2024/03/07 02:01:35;;;;;;;;;;;;;;;20.28;33.20;101750.91;4266522;27;19961;-59
2024/03/07 02:03:37;;;;;;;;;;;;;;;20.27;33.27;101744.69;4266246;27;19942;-59
2024/03/07 02:05:39;;;;;;;;;;;;;;;20.27;33.27;101743.84;4247968;27;19927;-60
2024/03/07 02:07:42;;;;;;;;;;;;;;;20.28;33.17;101748.22;4266611;27;19919;-59
2024/03/07 02:09:44;;;;;;;;;;;;;;;20.30;33.00;101742.78;4265495;27;19929;-59
2024/03/07 02:11:47;;;;;;;;;;;;;;;20.31;33.24;101740.03;4266286;27;19919;-59
2024/03/07 02:13:49;;;;;;;;;;;;;;;20.29;33.14;101735.72;4266309;27;19923;-59
2024/03/07 02:15:50;;;;;;;;;;;;;;;20.27;33.24;101733.16;4265973;27;20335;-59
2024/03/07 02:17:52;;;;;;;;;;;;;;;20.27;33.46;101725.97;4266213;27;19919;-59
2024/03/07 02:19:54;;;;;;;;;;;;;;;20.27;33.31;101731.31;4266099;27;19921;-59
2024/03/07 02:21:55;;;;;;;;;;;;;;;20.27;33.31;101725.97;4266115;27;19919;-59
2024/03/07 02:23:57;;;;;;;;;;;;;;;20.27;33.00;101727.81;4266388;27;19938;-59
2024/03/07 02:25:59;;;;;;;;;;;;;;;20.26;33.20;101726.09;4265935;27;19925;-59
2024/03/07 02:28:00;;;;;;;;;;;;;;;20.28;33.31;101724.19;4266049;27;20265;-59
2024/03/07 02:30:02;;;;;;;;;;;;;;;20.26;33.04;101724.25;4265573;27;19927;-59
2024/03/07 02:32:04;;;;;;;;;;;;;;;20.29;33.16;101712.53;4266161;27;19919;-59
2024/03/07 02:34:07;;;;;;;;;;;;;;;20.26;33.21;101721.59;4265815;27;19925;-59
2024/03/07 02:36:08;;;;;;;;;;;;;;;20.26;33.02;101716.25;4247588;27;20015;-58
2024/03/07 02:38:10;;;;;;;;;;;;;;;20.24;33.12;101714.63;4265917;27;20385;-58
2024/03/07 02:40:12;;;;;;;;;;;;;;;20.23;33.02;101719.13;4265958;27;20341;-58
2024/03/07 02:42:13;;;;;;;;;;;;;;;20.24;33.30;101707.50;4247219;27;20043;-58
2024/03/07 02:44:15;;;;;;;;;;;;;;;20.24;33.25;101702.16;4265401;27;19926;-57
2024/03/07 02:46:16;;;;;;;;;;;;;;;20.25;33.19;101695.81;4265776;27;19954;-57
2024/03/07 02:48:18;;;;;;;;;;;;;;;20.24;33.24;101693.25;4265693;27;20320;-58
2024/03/07 02:50:21;;;;;;;;;;;;;;;20.23;33.40;101695.09;4265840;27;20402;-57
2024/03/07 02:52:23;;;;;;;;;;;;;;;20.25;33.27;101700.31;4265673;27;20354;-58
2024/03/07 02:54:25;;;;;;;;;;;;;;;20.25;33.02;101694.97;4247445;27;20386;-59
2024/03/07 02:56:26;;;;;;;;;;;;;;;20.25;33.19;101694.97;4265495;27;20369;-59
2024/03/07 02:58:28;;;;;;;;;;;;;;;20.25;32.99;101692.31;4246677;27;19924;-59
2024/03/07 03:00:29;;;;;;;;;;;;;;;20.22;32.93;101693.34;4265678;27;19919;-58
2024/03/07 03:02:31;;;;;;;;;;;;;;;20.20;33.24;101694.41;4265347;27;19919;-59
2024/03/07 03:04:33;;;;;;;;;;;;;;;20.19;33.27;101692.69;4265500;27;19954;-59
2024/03/07 03:06:34;;;;;;;;;;;;;;;20.21;33.23;101696.97;4265076;27;19919;-59
2024/03/07 03:08:36;;;;;;;;;;;;;;;20.21;33.12;101696.97;4246891;27;19984;-59
2024/03/07 03:10:38;;;;;;;;;;;;;;;20.22;32.96;101687.13;4265719;27;19923;-59
2024/03/07 03:12:40;;;;;;;;;;;;;;;20.21;33.02;101688.97;4265287;27;19977;-59
2024/03/07 03:14:42;;;;;;;;;;;;;;;20.20;33.26;101689.91;4265052;27;20365;-59
2024/03/07 03:16:43;;;;;;;;;;;;;;;20.22;33.14;101690.69;4265529;27;19960;-59
2024/03/07 03:18:49;;;;;;;;;;;;;;;20.22;33.13;101684.47;4265292;27;20296;-59
2024/03/07 03:20:52;;;;;;;;;;;;;;;20.22;33.15;101685.34;4264918;27;19942;-59
2024/03/07 03:22:54;;;;;;;;;;;;;;;20.20;33.00;101678.38;4265362;27;19969;-59
2024/03/07 03:25:15;;;;;;;;;;;;;;;20.17;33.03;101679.44;4249637;27;19948;-59
2024/03/07 03:27:17;;;;;;;;;;;;;;;19.99;33.29;101649.38;4265153;27;19972;-59
2024/03/07 03:29:19;;;;;;;;;;;;;;;20.17;33.02;101668.75;4265219;27;20013;-59
2024/03/07 03:31:20;;;;;;;;;;;;;;;20.19;33.03;101676.66;4265052;27;19923;-59
2024/03/07 03:33:22;;;;;;;;;;;;;;;20.17;33.20;101673.22;4265198;27;19950;-58
2024/03/07 03:35:24;;;;;;;;;;;;;;;20.19;33.10;101669.50;4265084;27;19919;-59
2024/03/07 03:37:25;;;;;;;;;;;;;;;20.18;32.98;101666.91;4265101;27;19919;-59
2024/03/07 03:39:27;;;;;;;;;;;;;;;20.18;33.16;101666.91;4264859;27;19965;-59
2024/03/07 03:41:28;;;;;;;;;;;;;;;20.17;33.18;101655.41;4265145;27;19957;-59
2024/03/07 03:43:30;;;;;;;;;;;;;;;20.17;32.91;101660.75;4264567;27;19919;-59
2024/03/07 03:45:33;;;;;;;;;;;;;;;20.17;32.95;101663.41;4265025;27;19966;-59
2024/03/07 03:47:36;;;;;;;;;;;;;;;20.16;32.84;101656.34;4264872;27;20030;-59
2024/03/07 03:49:38;;;;;;;;;;;;;;;20.16;33.00;101660.81;4264987;27;19948;-59
2024/03/07 03:51:39;;;;;;;;;;;;;;;20.15;32.92;101667.13;4264995;27;20010;-58
2024/03/07 03:53:41;;;;;;;;;;;;;;;20.15;32.84;101659.13;4265017;27;19923;-59
2024/03/07 03:55:42;;;;;;;;;;;;;;;20.17;33.12;101658.06;4264680;27;19927;-59
2024/03/07 03:57:46;;;;;;;;;;;;;;;20.16;32.99;101658.13;4264415;27;19923;-59
2024/03/07 03:59:48;;;;;;;;;;;;;;;20.16;33.16;101659.00;4264895;27;20389;-59
2024/03/07 04:01:50;;;;;;;;;;;;;;;20.16;32.92;101661.69;4264864;27;19919;-59
2024/03/07 04:03:51;;;;;;;;;;;;;;;20.19;33.08;101657.97;4264963;27;20010;-59
2024/03/07 04:05:53;;;;;;;;;;;;;;;20.18;32.99;101656.25;4264552;27;20329;-59
2024/03/07 04:07:55;;;;;;;;;;;;;;;20.19;32.83;101656.13;4264747;27;19926;-59
2024/03/07 04:09:58;;;;;;;;;;;;;;;20.16;33.05;101652.78;4264958;27;19922;-59
2024/03/07 04:11:59;;;;;;;;;;;;;;;20.14;33.21;101652.06;4264327;27;19919;-59
2024/03/07 04:14:01;;;;;;;;;;;;;;;20.14;32.93;101650.22;4264757;27;19943;-59
2024/03/07 04:16:03;;;;;;;;;;;;;;;20.15;33.04;101657.28;4264948;27;20399;-59
2024/03/07 04:18:04;;;;;;;;;;;;;;;20.14;32.93;101652.91;4264561;27;20292;-59
2024/03/07 04:20:07;;;;;;;;;;;;;;;20.13;33.10;101653.84;4264820;27;19959;-59
2024/03/07 04:22:09;;;;;;;;;;;;;;;20.13;33.16;101653.84;4264783;27;19968;-58
2024/03/07 04:24:10;;;;;;;;;;;;;;;20.14;33.07;101658.25;4264820;27;19922;-58
2024/03/07 04:26:12;;;;;;;;;;;;;;;20.13;32.85;101656.50;4264484;27;19919;-59
2024/03/07 04:28:14;;;;;;;;;;;;;;;20.13;33.07;101661.00;4264622;27;19919;-58
2024/03/07 04:30:16;;;;;;;;;;;;;;;20.13;32.91;101659.19;4264586;27;19919;-58
2024/03/07 04:32:18;;;;;;;;;;;;;;;20.14;32.84;101654.72;4264556;27;20280;-59
2024/03/07 04:34:20;;;;;;;;;;;;;;;20.08;33.00;101659.47;4267257;27;20296;-59
2024/03/07 04:36:21;;;;;;;;;;;;;;;19.88;32.82;101628.66;4268024;27;19925;-59
2024/03/07 04:38:23;;;;;;;;;;;;;;;20.08;32.88;101659.47;4267786;27;19919;-58
2024/03/07 04:40:25;;;;;;;;;;;;;;;20.06;32.96;101658.72;4267507;27;19963;-58
2024/03/07 04:42:26;;;;;;;;;;;;;;;20.06;32.96;101657.84;4267654;27;19926;-59
2024/03/07 04:44:28;;;;;;;;;;;;;;;20.06;32.97;101653.38;4267899;27;19925;-58
2024/03/07 04:46:30;;;;;;;;;;;;;;;20.05;32.94;101648.09;4267625;27;19953;-58
2024/03/07 04:48:32;;;;;;;;;;;;;;;20.07;32.95;101641.75;4267718;27;19919;-58
2024/03/07 04:50:34;;;;;;;;;;;;;;;20.07;32.75;101639.06;4267696;27;19919;-59
2024/03/07 04:52:36;;;;;;;;;;;;;;;20.06;32.72;101640.03;4267732;27;19919;-59
2024/03/07 04:54:37;;;;;;;;;;;;;;;20.02;32.62;101641.16;4267376;27;19963;-59
2024/03/07 04:56:39;;;;;;;;;;;;;;;20.02;32.91;101637.63;4267811;27;19996;-59
2024/03/07 04:58:40;;;;;;;;;;;;;;;20.02;32.97;101637.63;4267465;27;19971;-59
2024/03/07 05:00:42;;;;;;;;;;;;;;;20.00;32.86;101643.06;4267542;27;19919;-59
2024/03/07 05:02:44;;;;;;;;;;;;;;;20.02;32.88;101640.31;4267270;27;19957;-58
2024/03/07 05:04:49;;;;;;;;;;;;;;;20.01;32.84;101646.59;4267363;27;20393;-58
2024/03/07 05:06:51;;;;;;;;;;;;;;;20.02;32.54;101643.81;4267410;27;20009;-58
2024/03/07 05:08:52;;;;;;;;;;;;;;;20.01;32.83;101639.44;4267145;27;20384;-59
2024/03/07 05:10:54;;;;;;;;;;;;;;;20.01;32.51;101643.91;4267218;27;19944;-59
2024/03/07 05:12:58;;;;;;;;;;;;;;;19.99;32.49;101644.03;4267344;27;19958;-58
2024/03/07 05:15:00;;;;;;;;;;;;;;;19.99;32.67;101645.81;4267311;27;20058;-59
2024/03/07 05:17:05;;;;;;;;;;;;;;;19.98;32.65;101641.41;4267235;27;19964;-59
2024/03/07 05:19:07;;;;;;;;;;;;;;;19.97;32.73;101645.91;4267573;27;20290;-59
2024/03/07 05:23:31;;;;;;;;;;;;;;;19.94;32.81;101641.63;4266839;27;20396;-58
2024/03/07 05:25:32;;;;;;;;;;;;;;;19.98;32.77;101641.41;4267025;27;19919;-59
2024/03/07 05:27:35;;;;;;;;;;;;;;;19.99;32.52;101638.69;4267075;27;20354;-57
2024/03/07 05:29:37;;;;;;;;;;;;;;;19.95;32.81;101638.00;4267140;27;19930;-58
2024/03/07 05:31:46;;;;;;;;;;;;;;;19.98;32.67;101636.97;4267005;27;19922;-59
2024/03/07 05:33:48;;;;;;;;;;;;;;;19.97;32.54;101637.06;4267051;27;20301;-58
2024/03/07 05:35:50;;;;;;;;;;;;;;;19.98;32.77;101630.75;4248415;27;20014;-59
2024/03/07 05:37:52;;;;;;;;;;;;;;;19.99;32.75;101629.78;4266617;27;19972;-59
2024/03/07 05:39:54;;;;;;;;;;;;;;;19.99;32.69;101629.78;4267004;27;20288;-59
2024/03/07 05:41:57;;;;;;;;;;;;;;;19.95;32.51;101627.31;4267012;27;20323;-59
2024/03/07 05:44:00;;;;;;;;;;;;;;;19.95;32.74;101638.00;4266684;27;20300;-59
2024/03/07 05:46:02;;;;;;;;;;;;;;;19.94;32.73;101630.94;4266675;27;20034;-59
2024/03/07 05:48:13;;;;;;;;;;;;;;;19.93;32.79;101634.56;4266790;27;19942;-58
2024/03/07 05:50:16;;;;;;;;;;;;;;;19.91;32.82;101636.47;4266574;27;19922;-58
2024/03/07 05:52:18;;;;;;;;;;;;;;;19.93;32.43;101631.88;4266333;27;19999;-60
2024/03/07 05:54:19;;;;;;;;;;;;;;;19.93;32.56;101631.88;4266710;27;19923;-59
2024/03/07 05:56:21;;;;;;;;;;;;;;;19.95;32.78;101640.69;4266649;27;19946;-58
2024/03/07 05:58:22;;;;;;;;;;;;;;;19.93;32.55;101634.56;4266518;27;20366;-58
2024/03/07 06:00:27;;;;;;;;;;;;;;;19.93;32.37;101631.03;4266774;27;19922;-58
2024/03/07 06:02:30;;;;;;;;;;;;;;;19.92;32.68;101629.31;4266307;27;19923;-58
2024/03/07 06:04:32;;;;;;;;;;;;;;;19.92;32.69;101629.31;4266604;27;19919;-58
2024/03/07 06:06:34;;;;;;;;;;;;;;;19.91;32.63;101630.28;4266440;27;19919;-58
2024/03/07 06:08:36;;;;;;;;;;;;;;;19.91;32.75;101633.78;4266284;27;20329;-58
2024/03/07 06:10:40;;;;;;;;;;;;;;;19.90;32.65;101631.22;4266293;27;19927;-58
2024/03/07 06:12:45;;;;;;;;;;;;;;;19.91;32.56;101627.59;4266549;27;19919;-58
2024/03/07 06:15:05;;;;;;;;;;;;;;;19.90;32.74;101628.53;4266487;27;19923;-58
2024/03/07 06:17:07;;;;;;;;;;;;;;;19.91;32.64;101619.59;4266348;27;19923;-58
2024/03/07 06:19:08;;;;;;;;;;;;;;;19.92;32.48;101621.31;4266239;27;19919;-58
2024/03/07 06:21:13;;;;;;;;;;;;;;;19.92;32.62;101623.97;4266281;27;19919;-58
2024/03/07 06:23:16;;;;;;;;;;;;;;;19.92;32.63;101622.16;4265747;27;19919;-57
2024/03/07 06:25:33;;;;;;;;;;;;;;;19.48;32.42;101551.81;4266047;27;19919;-58
2024/03/07 06:27:38;;;;;;;;;;;;;;;19.90;32.70;101616.06;4266147;27;19938;-58
2024/03/07 06:29:39;;;;;;;;;;;;;;;19.91;32.59;101622.25;4266094;27;20305;-59
2024/03/07 06:31:41;;;;;;;;;;;;;;;19.88;32.53;101619.75;4266068;27;19923;-58
2024/03/07 06:33:42;;;;;;;;;;;;;;;19.85;32.66;101612.81;4247721;27;20017;-59
2024/03/07 06:35:44;;;;;;;;;;;;;;;19.86;32.71;101611.00;4265892;27;20304;-59
2024/03/07 06:37:46;;;;;;;;;;;;;;;19.87;32.64;101615.41;4265689;27;20010;-58
2024/03/07 06:39:48;;;;;;;;;;;;;;;19.86;32.51;101613.69;4247635;27;19919;-57
2024/03/07 06:41:49;;;;;;;;;;;;;;;19.87;32.52;101610.91;4265868;27;19919;-59
2024/03/07 06:43:53;;;;;;;;;;;;;;;19.84;32.64;101611.06;4265879;27;19964;-58
2024/03/07 06:45:54;;;;;;;;;;;;;;;19.61;32.49;101581.28;4265869;27;20407;-59
2024/03/07 06:47:56;;;;;;;;;;;;;;;19.83;32.45;101614.69;4265572;27;19919;-58
2024/03/07 06:49:58;;;;;;;;;;;;;;;19.83;32.53;101608.47;4265776;27;20023;-58
2024/03/07 06:52:00;;;;;;;;;;;;;;;19.83;32.45;101600.47;4265553;27;20034;-59
2024/03/07 06:54:01;;;;;;;;;;;;;;;19.84;32.54;101607.56;4247427;27;19919;-58
2024/03/07 06:56:03;;;;;;;;;;;;;;;19.84;32.54;101605.75;4265301;27;20013;-58
2024/03/07 06:58:04;;;;;;;;;;;;;;;19.83;32.55;101604.03;4265557;27;20381;-58
2024/03/07 07:00:10;;;;;;;;;;;;;;;19.85;32.36;101596.78;4265560;27;20427;-58
2024/03/07 07:02:13;;;;;;;;;;;;;;;19.84;32.58;101608.41;4265508;27;19919;-58
2024/03/07 07:04:15;;;;;;;;;;;;;;;19.86;32.33;101605.66;4247190;27;19923;-59
2024/03/07 07:06:16;;;;;;;;;;;;;;;19.87;32.52;101608.25;4264854;27;20006;-58
2024/03/07 07:08:18;;;;;;;;;;;;;;;19.88;32.51;101606.41;4265514;27;19972;-58
2024/03/07 07:10:23;;;;;;;;;;;;;;;19.86;32.50;101603.84;4265426;27;19926;-58
2024/03/07 07:12:25;;;;;;;;;;;;;;;19.90;32.29;101599.19;4265195;27;19922;-59
2024/03/07 07:14:27;;;;;;;;;;;;;;;19.90;32.31;101597.38;4265440;27;19919;-58
2024/03/07 07:16:31;;;;;;;;;;;;;;;19.91;32.22;101596.41;4265393;27;20292;-58
2024/03/07 07:18:33;;;;;;;;;;;;;;;19.92;32.14;101587.44;4265227;27;20380;-59
2024/03/07 07:20:34;;;;;;;;;;;;;;;19.91;32.19;101598.22;4264990;27;19923;-59
2024/03/07 07:22:37;;;;;;;;;;;;;;;19.93;32.36;101591.00;4265289;27;19925;-58
2024/03/07 07:24:39;;;;;;;;;;;;;;;19.94;32.39;101584.72;4265164;27;19926;-59
2024/03/07 07:26:40;;;;;;;;;;;;;;;19.95;32.30;101587.28;4265150;27;20357;-58
2024/03/07 07:28:42;;;;;;;;;;;;;;;19.99;32.32;101582.59;4265283;27;20380;-58
2024/03/07 07:30:43;;;;;;;;;;;;;;;19.99;32.20;101584.41;4265370;27;20373;-59
2024/03/07 07:32:46;;;;;;;;;;;;;;;20.00;32.21;101581.66;4265116;27;19926;-59
2024/03/07 07:34:48;;;;;;;;;;;;;;;20.00;32.23;101584.31;4264488;27;19919;-58
2024/03/07 07:36:50;;;;;;;;;;;;;;;19.99;32.13;101577.28;4264978;27;19925;-59
2024/03/07 07:38:51;;;;;;;;;;;;;;;19.96;32.37;101577.44;4265009;27;19963;-59
2024/03/07 07:40:53;;;;;;;;;;;;;;;19.97;32.23;101576.50;4265063;27;19937;-58
2024/03/07 07:42:55;;;;;;;;;;;;;;;19.93;32.29;101578.50;4265105;27;19926;-58
2024/03/07 07:44:56;;;;;;;;;;;;;;;19.94;32.30;101572.22;4265031;27;19938;-58
2024/03/07 07:46:58;;;;;;;;;;;;;;;19.97;32.30;101573.81;4264832;27;20057;-58
2024/03/07 07:49:00;;;;;;;;;;;;;;;19.99;32.21;101571.94;4264617;27;19958;-58
2024/03/07 07:51:05;;;;;;;;;;;;;;;19.96;32.25;101564.09;4265127;27;19919;-57
2024/03/07 07:53:08;;;;;;;;;;;;;;;19.94;32.09;101569.53;4264993;27;19919;-58
2024/03/07 07:55:14;;;;;;;;;;;;;;;19.95;32.10;101565.03;4264842;27;20358;-58
2024/03/07 07:57:16;;;;;;;;;;;;;;;19.99;32.18;101560.38;4265050;27;19919;-58
2024/03/07 07:59:17;;;;;;;;;;;;;;;20.01;31.97;101558.47;4264838;27;20010;-58
2024/03/07 08:01:19;;;;;;;;;;;;;;;20.02;32.14;101563.72;4264643;27;19958;-58
2024/03/07 08:03:22;;;;;;;;;;;;;;;20.01;32.16;101566.47;4264763;27;19926;-58
2024/03/07 08:05:24;;;;;;;;;;;;;;;19.77;32.16;101514.50;4264661;27;19995;-58
2024/03/07 08:07:26;;;;;;;;;;;;;;;19.99;32.07;101553.25;4264758;27;20514;-57
2024/03/07 08:09:27;;;;;;;;;;;;;;;20.00;32.09;101552.28;4249507;27;19919;-58
2024/03/07 08:11:29;;;;;;;;;;;;;;;20.03;32.13;101551.22;4268491;27;19939;-58
2024/03/07 08:13:30;;;;;;;;;;;;;;;20.03;31.94;101543.22;4250130;27;19930;-57
2024/03/07 08:15:32;;;;;;;;;;;;;;;20.02;32.13;101547.69;4268177;27;19925;-58
2024/03/07 08:17:33;;;;;;;;;;;;;;;20.04;32.12;101536.94;4267722;27;19919;-58
2024/03/07 08:19:35;;;;;;;;;;;;;;;20.05;32.17;101535.97;4268220;27;19919;-58
2024/03/07 08:21:37;;;;;;;;;;;;;;;20.02;32.00;101530.81;4268157;27;20002;-58
2024/03/07 08:23:39;;;;;;;;;;;;;;;20.02;32.08;101526.31;4267959;27;19925;-58
2024/03/07 08:25:41;;;;;;;;;;;;;;;20.03;31.97;101529.88;4268053;27;19941;-58
2024/03/07 08:27:45;;;;;;;;;;;;;;;20.03;32.18;101522.72;4268051;27;19958;-58
2024/03/07 08:29:47;;;;;;;;;;;;;;;20.04;32.06;101518.25;4268046;27;20393;-58
2024/03/07 08:31:49;;;;;;;;;;;;;;;20.02;32.10;101518.31;4267787;27;20393;-58
2024/03/07 08:33:51;;;;;;;;;;;;;;;20.03;32.04;101511.19;4267799;27;19968;-58
2024/03/07 08:35:53;;;;;;;;;;;;;;;20.03;32.40;101517.38;4267896;27;19979;-58
2024/03/07 08:37:57;;;;;;;;;;;;;;;20.04;31.97;101518.25;4267604;27;20361;-58
2024/03/07 08:39:58;;;;;;;;;;;;;;;20.04;31.94;101518.25;4267807;27;19919;-58
2024/03/07 08:42:00;;;;;;;;;;;;;;;20.04;32.07;101519.09;4267784;27;20294;-58
2024/03/07 08:44:02;;;;;;;;;;;;;;;20.04;32.09;101518.25;4267731;27;19923;-59
2024/03/07 08:46:04;;;;;;;;;;;;;;;20.05;31.94;101520.81;4267795;27;19941;-58
2024/03/07 08:48:08;;;;;;;;;;;;;;;20.06;31.92;101516.31;4267307;27;19919;-58
2024/03/07 08:50:10;;;;;;;;;;;;;;;20.05;32.14;101509.25;4239867;27;19924;-59
2024/03/07 08:52:12;;;;;;;;;;;;;;;20.04;31.94;101511.06;4237930;27;19929;-57
2024/03/07 08:54:13;;;;;;;;;;;;;;;20.04;31.93;101510.22;4246916;27;19919;-56
2024/03/07 08:56:15;;;;;;;;;;;;;;;20.05;32.04;101511.91;4247646;27;20404;-56
2024/03/07 08:58:17;;;;;;;;;;;;;;;20.08;31.95;101503.72;4247290;27;19969;-56
2024/03/07 09:00:24;;;;;;;;;;;;;;;20.09;32.21;101511.63;4237103;27;20291;-58
2024/03/07 09:02:28;;;;;;;;;;;;;;;20.10;32.17;101509.84;4245873;27;20044;-57
2024/03/07 09:04:30;;;;;;;;;;;;;;;20.09;32.08;101513.47;4246626;27;19923;-58
2024/03/07 09:06:32;;;;;;;;;;;;;;;20.09;32.01;101510.78;4247726;27;19923;-58
2024/03/07 09:08:33;;;;;;;;;;;;;;;20.09;32.22;101513.47;4243691;27;19930;-58
2024/03/07 09:10:35;;;;;;;;;;;;;;;20.08;31.88;101511.75;4244945;27;20002;-57
2024/03/07 09:12:37;;;;;;;;;;;;;;;20.09;32.29;101510.78;4247825;27;20301;-59
2024/03/07 09:14:39;;;;;;;;;;;;;;;20.10;32.43;101504.50;4249468;27;19966;-59
2024/03/07 09:16:43;;;;;;;;;;;;;;;20.14;32.04;101499.81;4248873;27;20351;-57
2024/03/07 09:18:45;;;;;;;;;;;;;;;20.14;32.16;101491.81;4232196;28;19924;-58
2024/03/07 09:20:48;;;;;;;;;;;;;;;20.15;32.08;101491.72;4241743;27;19965;-57
2024/03/07 09:22:50;;;;;;;;;;;;;;;20.15;32.15;101494.38;4236416;27;19920;-58
2024/03/07 09:24:52;;;;;;;;;;;;;;;20.16;32.19;101488.09;4240887;27;19967;-58
2024/03/07 09:26:55;;;;;;;;;;;;;;;20.19;32.07;101497.72;4238294;27;20373;-59
2024/03/07 09:28:57;;;;;;;;;;;;;;;20.21;32.01;101493.13;4246686;27;19934;-59
2024/03/07 09:30:58;;;;;;;;;;;;;;;20.17;32.19;101486.25;4248762;27;19925;-58
2024/03/07 09:33:01;;;;;;;;;;;;;;;20.16;32.01;101485.41;4244892;27;19926;-58
2024/03/07 09:35:03;;;;;;;;;;;;;;;20.15;32.33;101482.84;4242027;27;19923;-58
2024/03/07 09:37:08;;;;;;;;;;;;;;;20.14;32.26;101478.47;4233408;27;19973;-58
2024/03/07 09:39:09;;;;;;;;;;;;;;;20.13;32.15;101472.25;4238043;27;19927;-60
2024/03/07 09:41:12;;;;;;;;;;;;;;;20.14;32.04;101476.63;4247753;27;20305;-60
2024/03/07 09:43:14;;;;;;;;;;;;;;;20.15;31.98;101473.00;4247272;27;19919;-58
2024/03/07 09:45:19;;;;;;;;;;;;;;;20.18;32.01;101464.78;4238026;27;19920;-56
2024/03/07 09:47:24;;;;;;;;;;;;;;;20.22;32.19;101460.09;4249054;27;20010;-57
2024/03/07 09:49:28;;;;;;;;;;;;;;;20.23;32.21;101459.16;4239539;27;19969;-63
2024/03/07 09:51:30;;;;;;;;;;;;;;;20.25;32.24;101458.09;4244160;27;19942;-61
2024/03/07 09:53:32;;;;;;;;;;;;;;;20.26;32.15;101462.47;4247211;27;20333;-63
2024/03/07 09:55:33;;;;;;;;;;;;;;;20.27;32.02;101458.84;4228517;28;19919;-58
2024/03/07 09:57:35;;;;;;;;;;;;;;;20.27;32.00;101442.84;4249042;27;19958;-60
2024/03/07 09:59:41;;;;;;;;;;;;;;;20.27;32.40;101442.84;4245551;27;19919;-60
2024/03/07 10:01:45;;;;;;;;;;;;;;;20.27;32.23;101442.84;4246740;27;19931;-62
2024/03/07 10:03:47;;;;;;;;;;;;;;;20.29;32.36;101439.22;4247373;27;20350;-57
2024/03/07 10:05:49;;;;;;;;;;;;;;;20.29;31.97;101437.38;4242107;27;19973;-61
2024/03/07 10:07:52;;;;;;;;;;;;;;;20.31;32.22;101434.63;4230876;27;19943;-61
2024/03/07 10:09:56;;;;;;;;;;;;;;;20.34;32.22;101431.75;4240459;27;19920;-59
2024/03/07 10:11:58;;;;;;;;;;;;;;;20.36;32.22;101427.16;4238001;27;19972;-62
2024/03/07 10:13:59;;;;;;;;;;;;;;;20.35;32.13;101426.31;4246764;27;19923;-59
2024/03/07 10:16:02;;;;;;;;;;;;;;;20.37;32.07;101426.22;4237078;27;19968;-58
2024/03/07 10:18:06;;;;;;;;;;;;;;;20.39;32.06;101427.81;4248648;27;19927;-59
2024/03/07 10:20:09;;;;;;;;;;;;;;;20.38;32.05;101430.59;4241014;27;19951;-60
2024/03/07 10:22:12;;;;;;;;;;;;;;;20.37;32.03;101426.22;4236107;27;19970;-60
2024/03/07 10:24:14;;;;;;;;;;;;;;;20.38;32.21;101428.78;4239594;27;19958;-61
2024/03/07 10:26:16;;;;;;;;;;;;;;;20.38;32.13;101423.44;4236950;27;20371;-60
2024/03/07 10:28:18;;;;;;;;;;;;;;;20.40;32.27;101420.66;4248374;27;19926;-61
2024/03/07 10:30:22;;;;;;;;;;;;;;;20.39;32.04;101427.81;4241658;27;20382;-58